createdAt,value
2022-10-10T00:01:22.124Z,11.30
2022-10-10T00:04:11.390Z,11.30
2022-10-10T00:06:59.362Z,11.30
2022-10-10T00:09:47.483Z,11.10
2022-10-10T00:12:35.443Z,11.10
2022-10-10T00:15:23.584Z,11.10
2022-10-10T00:18:11.535Z,11.10
2022-10-10T00:21:00.856Z,11.10
2022-10-10T00:23:48.809Z,11.00
2022-10-10T00:26:36.666Z,10.90
2022-10-10T00:29:24.508Z,10.80
2022-10-10T00:32:12.546Z,10.80
2022-10-10T00:35:00.611Z,10.70
2022-10-10T00:37:49.897Z,10.70
2022-10-10T00:40:45.224Z,10.70
2022-10-10T00:43:33.199Z,10.70
2022-10-10T00:46:21.141Z,10.70
2022-10-10T00:49:11.491Z,10.60
2022-10-10T00:52:00.566Z,10.60
2022-10-10T00:54:49.816Z,10.60
2022-10-10T00:57:37.700Z,10.50
2022-10-10T01:00:26.726Z,10.50
2022-10-10T01:03:14.689Z,10.40
2022-10-10T01:06:02.644Z,10.50
2022-10-10T01:08:50.796Z,10.30
2022-10-10T01:11:44.361Z,10.40
2022-10-10T01:14:36.675Z,10.40
2022-10-10T01:17:28.002Z,10.40
2022-10-10T01:20:31.156Z,10.40
2022-10-10T01:23:43.038Z,10.40
2022-10-10T01:26:45.775Z,10.40
2022-10-10T01:29:39.040Z,10.30
2022-10-10T01:32:30.234Z,10.40
2022-10-10T01:35:31.492Z,10.30
2022-10-10T01:38:28.441Z,10.30
2022-10-10T01:41:18.126Z,10.30
2022-10-10T01:44:08.018Z,10.50
2022-10-10T01:46:57.284Z,10.40
2022-10-10T01:49:46.372Z,10.30
2022-10-10T01:52:39.355Z,10.30
2022-10-10T01:55:33.167Z,10.30
2022-10-10T01:58:29.874Z,10.30
2022-10-10T02:01:19.066Z,10.30
2022-10-10T02:04:12.589Z,10.30
2022-10-10T02:07:02.881Z,10.20
2022-10-10T02:09:52.335Z,10.20
2022-10-10T02:12:40.626Z,10.30
2022-10-10T02:15:31.196Z,10.30
2022-10-10T02:18:21.013Z,10.20
2022-10-10T02:21:10.744Z,10.20
2022-10-10T02:24:00.827Z,10.20
2022-10-10T02:26:51.063Z,10.20
2022-10-10T02:29:40.265Z,10.20
2022-10-10T02:32:31.013Z,10.20
2022-10-10T02:35:20.905Z,10.20
2022-10-10T02:38:12.627Z,10.20
2022-10-10T02:41:04.050Z,10.20
2022-10-10T02:43:52.742Z,10.10
2022-10-10T02:46:40.784Z,10.10
2022-10-10T02:49:29.392Z,10.10
2022-10-10T02:52:17.828Z,10.10
2022-10-10T02:55:07.657Z,10.00
2022-10-10T02:57:55.667Z,10.00
2022-10-10T03:00:43.565Z,9.90
2022-10-10T03:03:31.576Z,9.80
2022-10-10T03:06:19.455Z,9.70
2022-10-10T03:09:07.483Z,9.50
2022-10-10T03:11:56.748Z,9.40
2022-10-10T03:14:44.874Z,9.10
2022-10-10T03:17:32.725Z,8.90
2022-10-10T03:20:20.608Z,8.80
2022-10-10T03:23:08.539Z,8.70
2022-10-10T03:25:56.375Z,8.80
2022-10-10T03:28:45.820Z,8.90
2022-10-10T03:31:33.718Z,8.90
2022-10-10T03:34:21.594Z,9.10
2022-10-10T03:37:09.409Z,9.20
2022-10-10T03:39:57.342Z,9.10
2022-10-10T03:42:45.163Z,9.10
2022-10-10T03:45:34.431Z,8.90
2022-10-10T03:48:22.299Z,8.70
2022-10-10T03:51:10.190Z,8.50
2022-10-10T03:53:58.103Z,8.40
2022-10-10T03:56:45.951Z,8.30
2022-10-10T03:59:33.945Z,8.30
2022-10-10T04:02:23.409Z,8.20
2022-10-10T04:05:11.351Z,8.20
2022-10-10T04:07:59.268Z,8.20
2022-10-10T04:10:49.013Z,8.20
2022-10-10T04:13:36.923Z,8.10
2022-10-10T04:16:24.797Z,8.00
2022-10-10T04:19:14.881Z,7.90
2022-10-10T04:22:02.746Z,7.80
2022-10-10T04:24:50.699Z,7.70
2022-10-10T04:27:38.621Z,7.80
2022-10-10T04:30:26.732Z,7.80
2022-10-10T04:33:14.655Z,7.80
2022-10-10T04:36:03.985Z,8.00
2022-10-10T04:38:52.131Z,8.00
2022-10-10T04:41:39.984Z,8.10
2022-10-10T04:44:28.015Z,8.10
2022-10-10T04:47:15.948Z,8.00
2022-10-10T04:50:03.953Z,8.00
2022-10-10T04:52:53.753Z,7.90
2022-10-10T04:55:41.956Z,7.90
2022-10-10T04:58:29.879Z,7.90
2022-10-10T05:01:17.751Z,7.90
2022-10-10T05:04:05.748Z,7.90
2022-10-10T05:06:53.718Z,7.90
2022-10-10T05:09:42.956Z,7.90
2022-10-10T05:12:30.804Z,7.90
2022-10-10T05:15:19.070Z,7.70
2022-10-10T05:18:06.990Z,7.60
2022-10-10T05:20:56.170Z,7.60
2022-10-10T05:23:46.674Z,7.50
2022-10-10T05:26:39.712Z,7.40
2022-10-10T05:29:30.181Z,7.40
2022-10-10T05:32:18.018Z,7.40
2022-10-10T05:35:06.438Z,7.50
2022-10-10T05:37:54.441Z,7.50
2022-10-10T05:40:42.365Z,7.50
2022-10-10T05:43:31.639Z,7.50
2022-10-10T05:46:20.330Z,7.60
2022-10-10T05:49:08.252Z,7.60
2022-10-10T05:51:56.323Z,7.60
2022-10-10T05:54:44.180Z,7.80
2022-10-10T05:57:31.999Z,7.70
2022-10-10T06:00:21.265Z,7.80
2022-10-10T06:03:12.537Z,7.70
2022-10-10T06:06:00.498Z,7.60
2022-10-10T06:08:48.411Z,7.70
2022-10-10T06:11:36.277Z,7.70
2022-10-10T06:14:24.153Z,7.60
2022-10-10T06:17:13.859Z,7.80
2022-10-10T06:20:01.793Z,7.80
2022-10-10T06:22:49.816Z,7.80
2022-10-10T06:25:40.959Z,7.80
2022-10-10T06:28:29.567Z,7.70
2022-10-10T06:31:17.733Z,7.80
2022-10-10T06:34:07.093Z,7.80
2022-10-10T06:36:55.161Z,7.80
2022-10-10T06:39:43.440Z,7.80
2022-10-10T06:42:31.485Z,7.80
2022-10-10T06:45:19.401Z,7.90
2022-10-10T06:48:07.454Z,8.00
2022-10-10T06:51:01.752Z,8.10
2022-10-10T06:53:49.831Z,8.30
2022-10-10T06:56:37.919Z,8.40
2022-10-10T06:59:25.849Z,8.50
2022-10-10T07:02:14.232Z,8.60
2022-10-10T07:05:02.171Z,8.70
2022-10-10T07:07:52.585Z,8.80
2022-10-10T07:10:40.618Z,8.90
2022-10-10T07:13:28.461Z,8.90
2022-10-10T07:16:16.434Z,9.00
2022-10-10T07:19:05.104Z,9.10
2022-10-10T07:21:53.009Z,9.10
2022-10-10T07:24:42.279Z,9.20
2022-10-10T07:27:30.194Z,9.30
2022-10-10T07:30:18.504Z,9.40
2022-10-10T07:33:06.375Z,9.40
2022-10-10T07:35:54.963Z,9.50
2022-10-10T07:38:42.882Z,9.50
2022-10-10T07:41:32.174Z,9.60
2022-10-10T07:44:20.707Z,9.70
2022-10-10T07:47:09.289Z,9.70
2022-10-10T07:49:57.198Z,9.80
2022-10-10T07:52:45.019Z,9.90
2022-10-10T07:55:33.078Z,9.90
2022-10-10T07:58:22.480Z,10.00
2022-10-10T08:01:11.792Z,10.10
2022-10-10T08:03:59.702Z,10.20
2022-10-10T08:06:48.266Z,10.30
2022-10-10T08:09:36.192Z,10.30
2022-10-10T08:12:24.085Z,10.40
2022-10-10T08:15:13.465Z,10.40
2022-10-10T08:18:01.510Z,10.50
2022-10-10T08:20:49.412Z,10.60
2022-10-10T08:23:37.591Z,10.60
2022-10-10T08:26:25.419Z,10.70
2022-10-10T08:29:13.262Z,10.80
2022-10-10T08:32:02.532Z,10.90
2022-10-10T08:34:50.614Z,10.90
2022-10-10T08:37:38.537Z,11.00
2022-10-10T08:40:28.749Z,11.10
2022-10-10T08:43:21.433Z,11.20
2022-10-10T08:46:11.706Z,11.20
2022-10-10T08:49:13.142Z,11.30
2022-10-10T08:52:04.698Z,11.40
2022-10-10T08:54:58.168Z,11.40
2022-10-10T08:57:49.468Z,11.60
2022-10-10T09:00:39.676Z,11.60
2022-10-10T09:03:31.605Z,11.70
2022-10-10T09:06:26.691Z,11.80
2022-10-10T09:09:18.567Z,11.90
2022-10-10T09:12:11.986Z,12.00
2022-10-10T09:15:03.839Z,12.10
2022-10-10T09:17:56.434Z,12.20
2022-10-10T09:20:48.621Z,12.30
2022-10-10T09:23:41.018Z,12.30
2022-10-10T09:26:30.058Z,12.50
2022-10-10T09:29:25.969Z,12.60
2022-10-10T09:32:15.356Z,12.60
2022-10-10T09:35:06.901Z,12.80
2022-10-10T09:37:57.780Z,12.90
2022-10-10T09:40:50.030Z,12.90
2022-10-10T09:43:38.465Z,12.90
2022-10-10T09:46:26.525Z,13.10
2022-10-10T09:49:15.484Z,13.20
2022-10-10T09:52:04.276Z,13.30
2022-10-10T09:54:53.837Z,13.40
2022-10-10T09:57:43.857Z,13.50
2022-10-10T10:00:35.305Z,13.60
2022-10-10T10:03:24.127Z,13.70
2022-10-10T10:06:13.743Z,13.90
2022-10-10T10:09:02.115Z,14.00
2022-10-10T10:11:54.519Z,14.10
2022-10-10T10:14:44.221Z,14.30
2022-10-10T10:17:32.166Z,14.40
2022-10-10T10:20:32.812Z,14.50
2022-10-10T10:23:24.558Z,14.70
2022-10-10T10:26:17.107Z,14.80
2022-10-10T10:29:04.974Z,14.90
2022-10-10T10:31:59.433Z,14.90
2022-10-10T10:34:57.666Z,15.00
2022-10-10T10:37:51.394Z,15.00
2022-10-10T10:40:41.346Z,15.20
2022-10-10T10:43:47.596Z,15.40
2022-10-10T10:46:41.678Z,15.50
2022-10-10T10:49:35.188Z,15.50
2022-10-10T10:52:41.447Z,15.70
2022-10-10T10:55:33.292Z,15.70
2022-10-10T10:59:16.020Z,15.90
2022-10-10T11:01:56.944Z,16.00
2022-10-10T11:05:19.116Z,16.10
2022-10-10T11:08:10.364Z,16.20
2022-10-10T11:11:02.504Z,16.30
2022-10-10T11:13:57.545Z,16.40
2022-10-10T11:16:49.129Z,16.50
2022-10-10T11:19:40.257Z,16.60
2022-10-10T11:22:32.336Z,16.70
2022-10-10T11:25:23.409Z,16.80
2022-10-10T11:28:12.948Z,16.90
2022-10-10T11:31:04.092Z,17.00
2022-10-10T11:33:56.285Z,17.00
2022-10-10T11:36:46.820Z,17.10
2022-10-10T11:39:39.832Z,17.20
2022-10-10T11:42:31.608Z,17.30
2022-10-10T11:45:22.639Z,17.40
2022-10-10T11:48:16.973Z,17.50
2022-10-10T11:51:07.085Z,17.50
2022-10-10T11:53:59.195Z,17.60
2022-10-10T11:56:49.272Z,17.70
2022-10-10T11:59:39.781Z,17.70
2022-10-10T12:02:29.049Z,17.70
2022-10-10T12:05:21.784Z,17.70
2022-10-10T12:08:17.805Z,17.70
2022-10-10T12:11:09.258Z,17.70
2022-10-10T12:13:59.881Z,17.70
2022-10-10T12:16:48.140Z,17.80
2022-10-10T12:19:36.030Z,17.90
2022-10-10T12:22:25.444Z,18.00
2022-10-10T12:25:23.990Z,18.10
2022-10-10T12:28:24.705Z,18.20
2022-10-10T12:31:33.675Z,18.40
2022-10-10T12:34:39.483Z,18.50
2022-10-10T12:37:29.469Z,18.60
2022-10-10T12:40:19.331Z,18.80
2022-10-10T12:43:23.528Z,18.90
2022-10-10T12:46:23.225Z,19.10
2022-10-10T12:49:19.379Z,19.30
2022-10-10T12:52:10.291Z,19.40
2022-10-10T12:55:06.782Z,19.40
2022-10-10T12:57:55.586Z,19.50
2022-10-10T13:00:44.459Z,19.60
2022-10-10T13:03:34.757Z,19.70
2022-10-10T13:06:29.247Z,19.80
2022-10-10T13:09:18.762Z,19.90
2022-10-10T13:12:19.121Z,20.00
2022-10-10T13:15:19.766Z,19.80
2022-10-10T13:18:07.616Z,19.80
2022-10-10T13:20:56.851Z,19.90
2022-10-10T13:26:53.998Z,20.20
2022-10-10T13:29:43.246Z,20.30
2022-10-10T13:32:33.393Z,20.20
2022-10-10T13:35:23.137Z,20.20
2022-10-10T13:38:12.624Z,20.30
2022-10-10T13:41:02.638Z,20.30
2022-10-10T13:43:51.147Z,20.40
2022-10-10T13:46:40.433Z,20.50
2022-10-10T13:49:29.425Z,20.50
2022-10-10T13:52:22.275Z,20.50
2022-10-10T13:55:17.307Z,20.60
2022-10-10T13:58:07.401Z,20.60
2022-10-10T14:00:56.169Z,20.60
2022-10-10T14:03:46.484Z,20.70
2022-10-10T14:06:34.971Z,20.60
2022-10-10T14:09:26.383Z,20.60
2022-10-10T14:12:17.357Z,20.50
2022-10-10T14:15:05.891Z,20.40
2022-10-10T14:17:53.730Z,20.40
2022-10-10T14:20:43.008Z,20.50
2022-10-10T14:23:30.836Z,20.40
2022-10-10T14:26:19.506Z,20.40
2022-10-10T14:29:11.625Z,20.40
2022-10-10T14:31:59.576Z,20.50
2022-10-10T14:34:47.681Z,20.60
2022-10-10T14:37:38.701Z,20.70
2022-10-10T14:40:28.174Z,20.90
2022-10-10T14:43:16.751Z,20.90
2022-10-10T14:46:04.613Z,20.80
2022-10-10T14:48:52.490Z,20.80
2022-10-10T14:51:40.438Z,20.70
2022-10-10T14:54:29.767Z,20.70
2022-10-10T14:57:22.266Z,20.60
2022-10-10T15:00:14.617Z,20.50
2022-10-10T15:03:02.510Z,20.40
2022-10-10T15:05:50.812Z,20.10
2022-10-10T15:08:38.710Z,20.00
2022-10-10T15:11:27.933Z,19.70
2022-10-10T15:14:15.762Z,19.50
2022-10-10T15:17:03.681Z,19.40
2022-10-10T15:19:52.143Z,19.10
2022-10-10T15:22:40.017Z,18.90
2022-10-10T15:25:33.321Z,18.80
2022-10-10T15:28:23.142Z,18.60
2022-10-10T15:31:11.057Z,18.50
2022-10-10T15:33:59.389Z,18.50
2022-10-10T15:36:47.572Z,18.60
2022-10-10T15:39:36.920Z,18.60
2022-10-10T15:42:24.814Z,18.70
2022-10-10T15:45:22.675Z,18.80
2022-10-10T15:48:19.050Z,18.80
2022-10-10T15:51:08.036Z,18.80
2022-10-10T15:53:56.994Z,18.80
2022-10-10T15:56:44.928Z,18.80
2022-10-10T15:59:33.247Z,18.70
2022-10-10T16:02:22.480Z,18.60
2022-10-10T16:05:10.761Z,18.50
2022-10-10T16:07:58.702Z,18.30
2022-10-10T16:10:46.553Z,18.30
2022-10-10T16:13:36.053Z,18.20
2022-10-10T16:16:24.320Z,18.20
2022-10-10T16:19:13.832Z,18.10
2022-10-10T16:22:01.780Z,17.90
2022-10-10T16:25:10.331Z,17.90
2022-10-10T16:27:57.501Z,17.80
2022-10-10T16:30:45.383Z,17.80
2022-10-10T16:33:33.831Z,17.70
2022-10-10T16:36:24.300Z,17.70
2022-10-10T16:39:13.183Z,17.50
2022-10-10T16:42:01.041Z,17.50
2022-10-10T16:44:49.007Z,17.50
2022-10-10T16:47:37.576Z,17.40
2022-10-10T16:50:25.461Z,17.40
2022-10-10T16:53:14.735Z,17.40
2022-10-10T16:56:03.975Z,17.30
2022-10-10T16:58:51.857Z,17.30
2022-10-10T17:01:39.766Z,17.20
2022-10-10T17:04:27.697Z,17.20
2022-10-10T17:07:15.633Z,17.20
2022-10-10T17:10:05.642Z,17.20
2022-10-10T17:12:53.462Z,17.20
2022-10-10T17:15:41.889Z,17.10
2022-10-10T17:18:29.781Z,17.10
2022-10-10T17:21:19.172Z,17.20
2022-10-10T17:24:07.315Z,17.10
2022-10-10T17:26:56.496Z,17.20
2022-10-10T17:29:44.381Z,17.20
2022-10-10T17:32:32.283Z,17.20
2022-10-10T17:35:20.145Z,17.20
2022-10-10T17:38:27.829Z,17.10
2022-10-10T17:41:17.372Z,17.10
2022-10-10T17:44:10.452Z,17.10
2022-10-10T17:46:58.572Z,17.10
2022-10-10T17:49:46.847Z,17.10
2022-10-10T17:52:34.891Z,17.10
2022-10-10T17:55:22.854Z,17.00
2022-10-10T17:58:10.787Z,17.00
2022-10-10T18:01:03.710Z,16.90
2022-10-10T18:03:52.445Z,16.90
2022-10-10T18:06:41.168Z,16.90
2022-10-10T18:09:29.096Z,16.80
2022-10-10T18:12:16.985Z,16.80
2022-10-10T18:15:05.108Z,16.70
2022-10-10T18:17:54.323Z,16.70
2022-10-10T18:20:42.292Z,16.70
2022-10-10T18:23:30.927Z,16.60
2022-10-10T18:26:19.570Z,16.70
2022-10-10T18:29:07.486Z,16.60
2022-10-10T18:31:56.414Z,16.60
2022-10-10T18:34:45.674Z,16.60
2022-10-10T18:37:33.534Z,16.50
2022-10-10T18:40:21.452Z,16.40
2022-10-10T18:43:09.297Z,16.30
2022-10-10T18:45:59.803Z,16.20
2022-10-10T18:48:53.557Z,16.20
2022-10-10T18:51:43.833Z,16.10
2022-10-10T18:54:33.139Z,16.10
2022-10-10T18:57:20.991Z,16.10
2022-10-10T19:00:09.472Z,16.00
2022-10-10T19:02:57.703Z,16.00
2022-10-10T19:05:45.638Z,15.90
2022-10-10T19:08:35.238Z,15.80
2022-10-10T19:11:23.904Z,15.70
2022-10-10T19:14:13.187Z,15.70
2022-10-10T19:17:01.118Z,15.70
2022-10-10T19:19:49.072Z,15.60
2022-10-10T19:22:37.028Z,15.50
2022-10-10T19:25:28.560Z,15.50
2022-10-10T19:28:16.417Z,15.50
2022-10-10T19:31:05.846Z,15.40
2022-10-10T19:33:54.341Z,15.40
2022-10-10T19:36:42.471Z,15.30
2022-10-10T19:39:30.397Z,15.10
2022-10-10T19:42:19.665Z,15.10
2022-10-10T19:45:08.088Z,15.10
2022-10-10T19:47:55.974Z,15.00
2022-10-10T19:50:44.406Z,15.10
2022-10-10T19:53:33.446Z,15.00
2022-10-10T19:56:24.392Z,15.10
2022-10-10T19:59:13.637Z,15.10
2022-10-10T20:02:01.575Z,14.90
2022-10-10T20:04:49.620Z,14.90
2022-10-10T20:07:37.598Z,14.80
2022-10-10T20:10:25.525Z,14.80
2022-10-10T20:13:16.058Z,14.80
2022-10-10T20:16:07.514Z,14.80
2022-10-10T20:18:56.302Z,14.90
2022-10-10T20:21:44.236Z,14.80
2022-10-10T20:24:32.106Z,14.80
2022-10-10T20:27:20.070Z,14.80
2022-10-10T20:30:08.469Z,14.80
2022-10-10T20:32:57.685Z,14.80
2022-10-10T20:35:46.878Z,14.70
2022-10-10T20:38:34.769Z,14.70
2022-10-10T20:41:23.313Z,14.60
2022-10-10T20:44:12.370Z,14.50
2022-10-10T20:47:00.297Z,14.20
2022-10-10T20:49:49.619Z,13.90
2022-10-10T20:52:37.488Z,13.70
2022-10-10T20:55:25.357Z,13.50
2022-10-10T20:58:13.190Z,13.30
2022-10-10T21:01:04.888Z,13.20
2022-10-10T21:03:52.868Z,13.00
2022-10-10T21:06:43.646Z,13.10
2022-10-10T21:09:32.539Z,13.10
2022-10-10T21:12:20.675Z,13.10
2022-10-10T21:15:08.861Z,12.90
2022-10-10T21:17:57.073Z,12.80
2022-10-10T21:20:44.960Z,12.70
2022-10-10T21:23:36.617Z,12.60
2022-10-10T21:26:25.679Z,12.40
2022-10-10T21:29:13.594Z,12.30
2022-10-10T21:32:01.539Z,12.30
2022-10-10T21:34:52.011Z,12.20
2022-10-10T21:37:45.536Z,12.10
2022-10-10T21:40:35.578Z,12.10
2022-10-10T21:43:23.430Z,12.00
2022-10-10T21:46:12.918Z,12.00
2022-10-10T21:49:03.547Z,12.00
2022-10-10T21:51:51.510Z,12.00
2022-10-10T21:54:39.722Z,11.90
2022-10-10T21:57:28.995Z,11.90
2022-10-10T22:00:17.876Z,11.80
2022-10-10T22:03:05.754Z,11.80
2022-10-10T22:05:53.586Z,11.90
2022-10-10T22:08:42.257Z,11.80
2022-10-10T22:11:31.406Z,11.70
2022-10-10T22:14:20.726Z,11.70
2022-10-10T22:17:08.568Z,11.60
2022-10-10T22:19:56.502Z,11.50
2022-10-10T22:22:45.364Z,11.60
2022-10-10T22:25:33.342Z,11.50
2022-10-10T22:28:21.383Z,11.50
2022-10-10T22:31:11.971Z,11.30
2022-10-10T22:33:59.803Z,11.40
2022-10-10T22:36:47.960Z,11.40
2022-10-10T22:39:35.806Z,11.30
2022-10-10T22:42:23.824Z,11.20
2022-10-10T22:45:11.701Z,11.20
2022-10-10T22:48:00.941Z,11.20
2022-10-10T22:50:48.822Z,11.10
2022-10-10T22:53:36.723Z,11.10
2022-10-10T22:56:24.676Z,11.10
2022-10-10T22:59:12.613Z,11.10
2022-10-10T23:02:00.489Z,11.00
2022-10-10T23:04:49.765Z,11.00
2022-10-10T23:07:37.565Z,10.90
2022-10-10T23:10:25.497Z,10.90
2022-10-10T23:13:13.373Z,10.80
2022-10-10T23:16:01.730Z,10.70
2022-10-10T23:18:50.093Z,10.70
2022-10-10T23:21:39.309Z,10.70
2022-10-10T23:24:27.312Z,10.60
2022-10-10T23:27:15.197Z,10.60
2022-10-10T23:30:03.177Z,10.50
2022-10-10T23:32:51.021Z,10.50
2022-10-10T23:35:38.949Z,10.50
2022-10-10T23:38:28.423Z,10.40
2022-10-10T23:41:16.315Z,10.40
2022-10-10T23:44:05.032Z,10.40
2022-10-10T23:46:52.859Z,10.30
2022-10-10T23:49:40.763Z,10.30
2022-10-10T23:52:28.597Z,10.20
2022-10-10T23:55:18.039Z,10.20
2022-10-10T23:58:05.925Z,10.10
